OAKB

Details ICAO OAKB (KBL)
Name Kabul Intl
Region Afghanistan
Timezone Asia/Kabul (UTC+4.5)
Plans Departing 99
Arriving 143
Stats Elevation 5,877 ft / 1,791 m (AMSL)
Location 34.565875° 69.212289°
Runways 1
Magnetic Variation 3.164° E
Sunrise 2017-12-12 02:21:55 UTC / 2017-12-12 06:51:55 Local
Sunset 2017-12-12 12:14:32 UTC / 2017-12-12 16:44:32 Local
Advertisement - Login to hide

Runways

ID Width Length Bearing (true) Bearing (mag) Surface Threshold Offset Overrun Length
11 164 ft / 50 m 11,483 ft / 3,500 m 107.39° 104.23° Asphalt 0 ft / 0 m 144 ft / 44 m
29 164 ft / 50 m 11,483 ft / 3,500 m 287.41° 284.25° Asphalt 0 ft / 0 m 190 ft / 58 m

Approach Navaids

Runway Type Ident Frequency Range Bearing (true) Bearing (mag) Slope Elevation
29 Localiser OAKB 110.50 MHz 18 nm / 33 km 287.33° 284.16° - 5,962 ft / 1,817 m (AMSL)
29 Glidescope OAKB 110.50 MHz 10 nm / 19 km 287.40° 284.24° 3.85° 5,943 ft / 1,811 m (AMSL)

Map

Weather


0- 5 10 15 20 25 30 35+ Temperature / ° C

Clouds and Precipitation
Forecast for 2017-12-12 12:00 UTC. Updated an hour ago

Ground ~20,000 ft ~40,000 ft Winds

METAR

OAKB 121150Z 11012KT 8000 FEW080 SCT200 06/M05 Q1015 NOSIG RMK A3000 BLU BLU

TAF

Not found

Frequencies

Ground 120.32 MHz Ground Control
Approach 133.35 MHz Bagram Approach Control
Tower 118.10 MHz Kabul Tower
Warning: Do not use this data for real-world aviation or navigation. No guarantee of current accuracy is given.